KART/ART METAR and TAF weather

Enter ICAO airport designator
Station Type Date Time Source
KART METAR 2019/06/26 21:56 UTC NOAA

KART 262156Z AUTO 26011G16KT 10SM CLR 26/18 A2996 RMK AO2 SLP139 T02610183


Station Type Date Time Source
KART Decoded METAR 2019/06/26 21:56 UTC NOAA

WATERTOWN INTERNATIONAL AIRPORT, NY, United States (KART) 43-59N 076-02W 100M
Jun 26, 2019 - 05:56 PM EDT / 2019.06.26 2156 UTC
Wind: from the W (260 degrees) at 13 MPH (11 KT) gusting to 18 MPH (16 KT):0
Visibility: 10 mile(s):0
Sky conditions: clear
Temperature: 79.0 F (26.1 C)
Dew Point: 64.9 F (18.3 C)
Relative Humidity: 62%
Pressure (altimeter): 29.96 in. Hg (1014 hPa)
ob: KART 262156Z AUTO 26011G16KT 10SM CLR 26/18 A2996 RMK AO2 SLP139 T02610183
cycle: 22

Station Type Date Time Source
KART TAF 2019/06/26 21:18 UTC NOAA

TAF
AMD KART 262115Z 2621/2718 24008KT P6SM SCT130 BKN250
FM270000 23004KT P6SM SCT250
FM270400 00000KT P6SM SKC
FM271500 24010KT P6SM SCT250

Example: see airport list